createdAt,value
2018-07-06T00:01:46.126Z,88.40
2018-07-06T00:04:32.904Z,88.50
2018-07-06T00:07:19.472Z,88.60
2018-07-06T00:10:06.078Z,88.70
2018-07-06T00:12:52.685Z,88.60
2018-07-06T00:15:39.697Z,88.20
2018-07-06T00:18:26.304Z,88.10
2018-07-06T00:21:12.842Z,88.00
2018-07-06T00:23:59.451Z,88.30
2018-07-06T00:26:46.056Z,88.10
2018-07-06T00:29:32.750Z,87.80
2018-07-06T00:32:19.268Z,87.90
2018-07-06T00:35:06.071Z,87.60
2018-07-06T00:37:52.578Z,87.60
2018-07-06T00:40:38.926Z,88.00
2018-07-06T00:43:25.418Z,88.20
2018-07-06T00:46:11.953Z,88.30
2018-07-06T00:48:59.461Z,88.50
2018-07-06T00:51:45.878Z,88.40
2018-07-06T00:54:32.498Z,88.20
2018-07-06T00:57:18.974Z,88.20
2018-07-06T01:00:05.389Z,88.10
2018-07-06T01:02:52.110Z,88.40
2018-07-06T01:05:38.838Z,88.20
2018-07-06T01:08:25.663Z,88.30
2018-07-06T01:11:12.326Z,88.30
2018-07-06T01:13:58.861Z,88.00
2018-07-06T01:16:45.336Z,87.80
2018-07-06T01:19:31.765Z,87.90
2018-07-06T01:22:18.533Z,87.50
2018-07-06T01:25:05.804Z,87.40
2018-07-06T01:27:52.496Z,87.80
2018-07-06T01:30:39.176Z,87.80
2018-07-06T01:33:25.836Z,88.00
2018-07-06T01:36:12.399Z,87.70
2018-07-06T01:38:58.938Z,87.60
2018-07-06T01:41:45.606Z,87.40
2018-07-06T01:44:32.556Z,87.40
2018-07-06T01:47:19.213Z,87.00
2018-07-06T01:50:05.979Z,87.30
2018-07-06T01:52:52.756Z,87.30
2018-07-06T01:55:39.263Z,87.40
2018-07-06T01:58:26.058Z,87.10
2018-07-06T02:01:12.638Z,87.30
2018-07-06T02:03:59.459Z,87.10
2018-07-06T02:06:45.960Z,86.70
2018-07-06T02:09:32.571Z,87.30
2018-07-06T02:12:19.232Z,87.20
2018-07-06T02:15:05.895Z,87.50
2018-07-06T02:17:52.582Z,86.90
2018-07-06T02:20:39.165Z,86.90
2018-07-06T02:23:25.642Z,87.30
2018-07-06T02:26:12.329Z,87.00
2018-07-06T02:28:58.909Z,87.00
2018-07-06T02:31:45.564Z,87.00
2018-07-06T02:34:32.363Z,87.30
2018-07-06T02:37:19.436Z,87.90
2018-07-06T02:40:05.986Z,88.20
2018-07-06T02:42:52.991Z,89.00
2018-07-06T02:45:40.215Z,89.10
2018-07-06T02:48:26.981Z,89.40
2018-07-06T02:51:13.604Z,89.80
2018-07-06T02:54:00.108Z,90.20
2018-07-06T02:56:46.625Z,90.10
2018-07-06T02:59:33.364Z,90.10
2018-07-06T03:02:20.006Z,90.30
2018-07-06T03:05:06.592Z,90.30
2018-07-06T03:07:53.171Z,90.50
2018-07-06T03:10:40.081Z,90.80
2018-07-06T03:13:26.770Z,91.10
2018-07-06T03:16:13.519Z,90.90
2018-07-06T03:19:00.115Z,91.30
2018-07-06T03:21:46.737Z,91.20
2018-07-06T03:24:33.334Z,91.30
2018-07-06T03:27:20.214Z,91.30
2018-07-06T03:30:06.837Z,91.60
2018-07-06T03:32:54.381Z,91.40
2018-07-06T03:35:41.048Z,91.40
2018-07-06T03:38:27.823Z,91.70
2018-07-06T03:41:14.441Z,91.80
2018-07-06T03:44:03.036Z,91.90
2018-07-06T03:46:49.549Z,91.70
2018-07-06T03:49:36.152Z,91.80
2018-07-06T03:52:22.681Z,91.90
2018-07-06T03:55:10.599Z,92.00
2018-07-06T03:57:59.013Z,92.10
2018-07-06T04:00:45.881Z,92.00
2018-07-06T04:03:32.670Z,91.90
2018-07-06T04:06:19.464Z,92.00
2018-07-06T04:09:06.222Z,92.10
2018-07-06T04:11:52.723Z,92.20
2018-07-06T04:14:39.469Z,92.20
2018-07-06T04:17:26.204Z,92.20
2018-07-06T04:20:12.923Z,92.20
2018-07-06T04:23:00.572Z,92.00
2018-07-06T04:25:49.559Z,91.90
2018-07-06T04:28:36.610Z,92.00
2018-07-06T04:31:23.460Z,92.00
2018-07-06T04:36:51.163Z,92.20
2018-07-06T04:39:39.004Z,92.00
2018-07-06T04:42:25.466Z,92.10
2018-07-06T04:45:11.922Z,92.00
2018-07-06T04:47:58.422Z,92.10
2018-07-06T04:50:45.319Z,92.10
2018-07-06T04:53:32.115Z,92.10
2018-07-06T04:56:18.940Z,92.00
2018-07-06T04:59:06.482Z,92.40
2018-07-06T05:01:53.110Z,92.50
2018-07-06T05:04:39.981Z,92.60
2018-07-06T05:07:26.576Z,92.40
2018-07-06T05:10:13.366Z,92.20
2018-07-06T05:13:01.418Z,92.30
2018-07-06T05:15:48.107Z,92.30
2018-07-06T05:18:34.717Z,92.10
2018-07-06T05:21:21.649Z,92.20
2018-07-06T05:24:08.414Z,92.60
2018-07-06T05:26:55.276Z,92.50
2018-07-06T05:29:42.287Z,92.60
2018-07-06T05:32:28.853Z,92.70
2018-07-06T05:35:15.561Z,92.80
2018-07-06T05:38:04.549Z,92.60
2018-07-06T05:40:51.524Z,92.80
2018-07-06T05:43:38.245Z,92.90
2018-07-06T05:46:25.234Z,93.20
2018-07-06T05:49:13.771Z,93.40
2018-07-06T05:52:00.650Z,93.30
2018-07-06T05:54:47.489Z,93.70
2018-07-06T05:57:34.277Z,93.70
2018-07-06T06:00:20.970Z,93.50
2018-07-06T06:03:07.600Z,93.80
2018-07-06T06:05:54.228Z,93.90
2018-07-06T06:10:58.205Z,94.00
2018-07-06T06:13:28.145Z,94.00
2018-07-06T06:15:57.942Z,93.80
2018-07-06T06:18:27.766Z,93.60
2018-07-06T06:20:57.599Z,93.60
2018-07-06T06:23:27.562Z,93.70
2018-07-06T06:25:57.198Z,93.70
2018-07-06T06:28:26.975Z,93.80
2018-07-06T06:30:56.784Z,93.50
2018-07-06T06:33:27.026Z,93.60
2018-07-06T06:35:56.640Z,93.60
2018-07-06T06:40:55.766Z,93.40
2018-07-06T06:43:25.547Z,93.40
2018-07-06T06:45:55.336Z,93.50
2018-07-06T06:48:25.216Z,93.50
2018-07-06T06:50:55.247Z,93.50
2018-07-06T06:55:54.629Z,94.20
2018-07-06T06:58:24.662Z,94.00
2018-07-06T07:00:54.571Z,93.90
2018-07-06T07:03:25.763Z,93.90
2018-07-06T07:05:56.010Z,94.00
2018-07-06T07:08:26.239Z,93.90
2018-07-06T07:10:56.413Z,94.10
2018-07-06T07:13:26.008Z,94.20
2018-07-06T07:15:56.036Z,94.00
2018-07-06T07:18:25.993Z,93.80
2018-07-06T07:20:56.938Z,93.90
2018-07-06T07:23:27.270Z,93.90
2018-07-06T07:25:57.485Z,93.60
2018-07-06T07:28:28.632Z,93.60
2018-07-06T07:30:58.328Z,93.40
2018-07-06T07:33:28.342Z,93.70
2018-07-06T07:35:59.302Z,93.70
2018-07-06T07:38:29.216Z,94.00
2018-07-06T07:40:58.968Z,93.90
2018-07-06T07:43:29.918Z,93.70
2018-07-06T07:48:29.182Z,93.80
2018-07-06T07:51:09.861Z,93.80
2018-07-06T07:53:50.812Z,93.50
2018-07-06T07:56:21.759Z,93.30
2018-07-06T07:58:51.975Z,93.70
2018-07-06T08:01:22.182Z,93.50
2018-07-06T08:03:51.975Z,93.60
2018-07-06T08:06:27.804Z,93.40
2018-07-06T08:08:57.763Z,93.30
2018-07-06T08:11:27.640Z,93.40
2018-07-06T08:13:57.510Z,93.70
2018-07-06T08:16:27.429Z,93.50
2018-07-06T08:18:57.360Z,94.00
2018-07-06T08:21:27.422Z,93.70
2018-07-06T08:23:57.214Z,94.00
2018-07-06T08:26:27.188Z,93.70
2018-07-06T08:28:56.934Z,93.70
2018-07-06T08:31:26.611Z,93.80
2018-07-06T08:34:07.369Z,94.20
2018-07-06T08:37:46.968Z,94.10
2018-07-06T08:40:17.330Z,93.80
2018-07-06T08:42:49.393Z,93.90
2018-07-06T08:45:19.264Z,94.30
2018-07-06T08:47:49.544Z,94.10
2018-07-06T08:52:50.011Z,94.20
2018-07-06T08:55:20.470Z,94.30
2018-07-06T08:57:52.793Z,94.50
2018-07-06T09:00:22.709Z,94.40
2018-07-06T09:02:52.654Z,93.90
2018-07-06T09:05:22.632Z,93.70
2018-07-06T09:07:52.511Z,93.80
2018-07-06T09:10:22.248Z,93.80
2018-07-06T09:12:52.122Z,94.00
2018-07-06T09:15:21.774Z,94.40
2018-07-06T09:17:51.694Z,94.60
2018-07-06T09:20:21.662Z,94.60
2018-07-06T09:22:51.651Z,94.70
2018-07-06T09:25:21.833Z,94.60
2018-07-06T09:27:51.579Z,94.40
2018-07-06T09:30:21.448Z,94.20
2018-07-06T09:32:51.299Z,93.80
2018-07-06T09:35:20.964Z,93.60
2018-07-06T09:37:50.812Z,93.50
2018-07-06T09:40:20.749Z,93.10
2018-07-06T09:42:50.350Z,93.10
2018-07-06T09:45:20.350Z,93.20
2018-07-06T09:47:50.091Z,93.10
2018-07-06T09:50:19.797Z,92.60
2018-07-06T09:52:49.594Z,92.70
2018-07-06T09:55:19.234Z,92.40
2018-07-06T09:57:49.020Z,92.70
2018-07-06T10:00:24.759Z,92.80
2018-07-06T10:02:54.749Z,92.10
2018-07-06T10:05:24.862Z,92.50
2018-07-06T10:07:54.746Z,92.50
2018-07-06T10:10:24.601Z,92.50
2018-07-06T10:15:24.532Z,92.60
2018-07-06T10:17:54.319Z,92.50
2018-07-06T10:20:24.162Z,92.50
2018-07-06T10:22:54.030Z,92.30
2018-07-06T10:25:24.106Z,92.00
2018-07-06T10:28:06.952Z,91.80
2018-07-06T10:30:53.136Z,91.80
2018-07-06T10:33:22.854Z,91.80
2018-07-06T10:35:52.550Z,91.90
2018-07-06T10:38:23.300Z,91.60
2018-07-06T10:40:53.310Z,91.90
2018-07-06T10:43:23.197Z,92.00
2018-07-06T10:45:52.925Z,91.90
2018-07-06T10:48:22.493Z,92.30
2018-07-06T10:50:52.226Z,92.30
2018-07-06T10:53:22.135Z,92.40
2018-07-06T10:55:51.959Z,92.50
2018-07-06T10:58:21.866Z,92.30
2018-07-06T11:00:51.953Z,92.50
2018-07-06T11:03:22.035Z,92.00
2018-07-06T11:05:52.071Z,92.00
2018-07-06T11:08:23.030Z,91.70
2018-07-06T11:10:53.787Z,91.10
2018-07-06T11:13:23.674Z,91.20
2018-07-06T11:15:53.674Z,90.90
2018-07-06T11:18:23.753Z,91.10
2018-07-06T11:20:53.728Z,91.30
2018-07-06T11:23:23.592Z,90.20
2018-07-06T11:25:53.655Z,90.10
2018-07-06T11:28:23.723Z,90.40
2018-07-06T11:30:53.377Z,90.80
2018-07-06T11:33:23.219Z,90.70
2018-07-06T11:35:53.138Z,90.20
2018-07-06T11:38:23.117Z,90.10
2018-07-06T11:40:53.189Z,89.00
2018-07-06T11:43:23.176Z,87.10
2018-07-06T11:45:53.010Z,84.40
2018-07-06T11:48:22.752Z,84.20
2018-07-06T11:50:52.461Z,83.30
2018-07-06T11:53:22.539Z,84.20
2018-07-06T11:55:52.464Z,84.30
2018-07-06T11:58:22.678Z,84.80
2018-07-06T12:00:52.666Z,85.60
2018-07-06T12:03:26.134Z,85.50
2018-07-06T12:05:56.229Z,85.90
2018-07-06T12:08:26.271Z,86.20
2018-07-06T12:10:56.141Z,86.10
2018-07-06T12:13:26.493Z,86.40
2018-07-06T12:15:56.302Z,85.20
2018-07-06T12:20:56.741Z,86.10
2018-07-06T12:23:27.812Z,85.60
2018-07-06T12:25:57.520Z,85.40
2018-07-06T12:28:29.982Z,85.00
2018-07-06T12:31:00.015Z,85.10
2018-07-06T12:33:33.277Z,85.30
2018-07-06T12:36:05.642Z,85.20
2018-07-06T12:41:07.670Z,85.60
2018-07-06T12:43:37.973Z,84.80
2018-07-06T12:46:08.312Z,85.30
2018-07-06T12:48:38.988Z,85.30
2018-07-06T12:51:10.176Z,85.50
2018-07-06T12:53:41.530Z,85.80
2018-07-06T12:56:11.710Z,85.50
2018-07-06T12:58:41.860Z,85.50
2018-07-06T13:01:11.891Z,85.80
2018-07-06T13:03:42.843Z,85.60
2018-07-06T13:06:13.238Z,85.80
2018-07-06T13:08:44.610Z,85.20
2018-07-06T13:11:15.224Z,83.80
2018-07-06T13:13:48.936Z,84.00
2018-07-06T13:16:21.447Z,84.60
2018-07-06T13:18:51.517Z,83.10
2018-07-06T13:21:21.889Z,83.00
2018-07-06T13:23:53.833Z,82.90
2018-07-06T13:26:23.824Z,82.60
2018-07-06T13:28:53.874Z,82.90
2018-07-06T13:31:25.013Z,82.50
2018-07-06T13:33:55.394Z,81.80
2018-07-06T13:36:25.657Z,81.00
2018-07-06T13:38:56.787Z,81.00
2018-07-06T13:41:26.661Z,79.30
2018-07-06T13:46:27.410Z,78.60
2018-07-06T13:48:57.424Z,79.00
2018-07-06T13:51:27.267Z,80.00
2018-07-06T13:53:58.411Z,80.40
2018-07-06T13:56:28.144Z,81.30
2018-07-06T13:58:57.829Z,81.10
2018-07-06T14:01:27.680Z,81.60
2018-07-06T14:03:57.402Z,81.10
2018-07-06T14:06:27.368Z,81.90
2018-07-06T14:08:56.930Z,81.30
2018-07-06T14:11:26.843Z,80.90
2018-07-06T14:13:57.133Z,80.20
2018-07-06T14:16:26.964Z,79.80
2018-07-06T14:18:56.621Z,79.80
2018-07-06T14:21:26.451Z,80.00
2018-07-06T14:23:57.198Z,79.70
2018-07-06T14:26:27.094Z,79.60
2018-07-06T14:28:56.819Z,78.90
2018-07-06T14:31:27.807Z,78.70
2018-07-06T14:33:57.688Z,78.30
2018-07-06T14:36:27.633Z,78.60
2018-07-06T14:38:58.804Z,78.60
2018-07-06T14:41:28.643Z,77.30
2018-07-06T14:43:59.969Z,77.00
2018-07-06T14:46:29.905Z,75.70
2018-07-06T14:49:00.000Z,76.00
2018-07-06T14:51:30.949Z,76.30
2018-07-06T14:54:00.678Z,74.20
2018-07-06T14:56:32.661Z,74.30
2018-07-06T14:59:02.672Z,74.10
2018-07-06T15:01:32.459Z,74.20
2018-07-06T15:04:02.305Z,74.00
2018-07-06T15:06:32.282Z,74.50
2018-07-06T15:09:02.323Z,74.30
2018-07-06T15:11:32.118Z,73.80
2018-07-06T15:14:04.329Z,73.60
2018-07-06T15:16:34.204Z,74.20
2018-07-06T15:19:04.027Z,73.90
2018-07-06T15:21:33.741Z,73.50
2018-07-06T15:24:04.567Z,73.70
2018-07-06T15:26:36.472Z,73.10
2018-07-06T15:29:07.514Z,73.10
2018-07-06T15:31:37.475Z,73.20
2018-07-06T15:34:07.157Z,72.90
2018-07-06T15:36:37.519Z,71.90
2018-07-06T15:39:09.141Z,71.90
2018-07-06T15:41:39.700Z,71.40
2018-07-06T15:46:38.853Z,71.10
2018-07-06T15:49:08.639Z,70.70
2018-07-06T15:51:40.163Z,71.00
2018-07-06T15:54:10.072Z,71.30
2018-07-06T15:56:39.937Z,70.80
2018-07-06T15:59:09.723Z,70.90
2018-07-06T16:01:39.473Z,71.10
2018-07-06T16:04:09.291Z,71.70
2018-07-06T16:06:39.962Z,71.50
2018-07-06T16:09:09.806Z,71.80
2018-07-06T16:11:39.572Z,72.00
2018-07-06T16:14:09.420Z,71.40
2018-07-06T16:16:39.165Z,72.00
2018-07-06T16:19:09.247Z,72.10
2018-07-06T16:21:40.060Z,72.60
2018-07-06T16:24:09.788Z,72.90
2018-07-06T16:26:39.776Z,72.90
2018-07-06T16:29:15.122Z,71.40
2018-07-06T16:31:44.715Z,70.90
2018-07-06T16:34:14.912Z,71.30
2018-07-06T16:36:44.781Z,71.30
2018-07-06T16:39:14.593Z,71.70
2018-07-06T16:41:44.410Z,71.70
2018-07-06T16:44:15.342Z,71.50
2018-07-06T16:46:45.227Z,71.30
2018-07-06T16:49:14.938Z,71.40
2018-07-06T16:51:44.616Z,72.00
2018-07-06T16:54:14.501Z,72.80
2018-07-06T16:56:45.508Z,72.70
2018-07-06T16:59:15.319Z,74.20
2018-07-06T17:01:45.269Z,73.80
2018-07-06T17:04:15.112Z,74.20
2018-07-06T17:06:45.011Z,74.40
2018-07-06T17:09:15.069Z,74.90
2018-07-06T17:11:44.875Z,75.40
2018-07-06T17:14:14.695Z,75.90
2018-07-06T17:16:44.755Z,76.90
2018-07-06T17:19:14.890Z,77.10
2018-07-06T17:21:45.230Z,77.40
2018-07-06T17:24:15.433Z,78.30
2018-07-06T17:26:45.132Z,78.20
2018-07-06T17:29:14.970Z,78.20
2018-07-06T17:31:45.755Z,78.20
2018-07-06T17:34:15.557Z,78.20
2018-07-06T17:36:45.518Z,78.60
2018-07-06T17:39:15.517Z,78.10
2018-07-06T17:41:45.306Z,78.60
2018-07-06T17:44:15.323Z,78.70
2018-07-06T17:46:45.145Z,79.00
2018-07-06T17:49:16.184Z,79.10
2018-07-06T17:51:45.948Z,79.20
2018-07-06T17:54:15.873Z,79.50
2018-07-06T17:56:45.990Z,79.50
2018-07-06T17:59:16.763Z,79.90
2018-07-06T18:01:46.406Z,80.20
2018-07-06T18:04:16.153Z,80.50
2018-07-06T18:06:45.972Z,80.70
2018-07-06T18:09:16.669Z,81.00
2018-07-06T18:11:46.515Z,81.00
2018-07-06T18:14:16.303Z,81.80
2018-07-06T18:16:47.205Z,82.20
2018-07-06T18:19:17.124Z,82.40
2018-07-06T18:21:46.978Z,82.60
2018-07-06T18:26:46.193Z,82.80
2018-07-06T18:29:15.972Z,83.10
2018-07-06T18:31:51.709Z,83.10
2018-07-06T18:34:22.562Z,83.30
2018-07-06T18:36:54.391Z,83.20
2018-07-06T18:39:24.203Z,83.80
2018-07-06T18:41:53.813Z,83.80
2018-07-06T18:44:23.585Z,84.00
2018-07-06T18:46:53.255Z,84.20
2018-07-06T18:49:23.144Z,83.80
2018-07-06T18:51:52.850Z,83.70
2018-07-06T18:54:22.609Z,83.60
2018-07-06T18:56:54.356Z,83.40
2018-07-06T18:59:24.199Z,83.30
2018-07-06T19:01:54.012Z,83.70
2018-07-06T19:04:23.865Z,83.30
2018-07-06T19:06:53.619Z,83.00
2018-07-06T19:09:23.629Z,83.10
2018-07-06T19:12:01.206Z,82.90
2018-07-06T19:14:31.344Z,83.10
2018-07-06T19:17:01.825Z,83.00
2018-07-06T19:19:31.456Z,82.80
2018-07-06T19:22:02.901Z,82.70
2018-07-06T19:24:32.703Z,82.90
2018-07-06T19:27:02.520Z,82.90
2018-07-06T19:29:32.344Z,82.60
2018-07-06T19:32:03.392Z,82.80
2018-07-06T19:34:33.061Z,82.90
2018-07-06T19:37:02.802Z,83.10
2018-07-06T19:42:02.647Z,82.60
2018-07-06T19:44:32.344Z,82.80
2018-07-06T19:47:03.597Z,82.60
2018-07-06T19:49:33.556Z,82.70
2018-07-06T19:52:03.389Z,82.70
2018-07-06T19:54:33.015Z,82.60
2018-07-06T19:57:03.092Z,82.50
2018-07-06T19:59:32.958Z,82.50
2018-07-06T20:02:03.933Z,82.60
2018-07-06T20:04:33.631Z,82.70
2018-07-06T20:07:03.546Z,82.60
2018-07-06T20:09:33.377Z,83.10
2018-07-06T20:12:02.910Z,82.70
2018-07-06T20:14:32.559Z,82.90
2018-07-06T20:17:02.785Z,82.80
2018-07-06T20:19:32.631Z,82.80
2018-07-06T20:22:02.504Z,82.70
2018-07-06T20:24:32.292Z,82.80
2018-07-06T20:27:05.011Z,82.80
2018-07-06T20:29:34.650Z,83.00
2018-07-06T20:32:04.303Z,83.50
2018-07-06T20:34:34.115Z,83.00
2018-07-06T20:37:03.795Z,83.40
2018-07-06T20:39:33.646Z,83.50
2018-07-06T20:42:03.288Z,83.50
2018-07-06T20:44:33.427Z,83.50
2018-07-06T20:47:03.198Z,83.70
2018-07-06T20:49:32.849Z,83.50
2018-07-06T20:52:02.443Z,83.90
2018-07-06T20:54:32.051Z,84.40
2018-07-06T20:57:01.704Z,84.10
2018-07-06T20:59:31.323Z,84.10
2018-07-06T21:02:03.219Z,85.20
2018-07-06T21:04:32.786Z,87.00
2018-07-06T21:07:04.251Z,87.30
2018-07-06T21:09:33.802Z,88.20
2018-07-06T21:12:05.331Z,89.40
2018-07-06T21:14:35.108Z,90.00
2018-07-06T21:17:06.028Z,90.20
2018-07-06T21:19:35.567Z,90.50
2018-07-06T21:22:06.415Z,90.40
2018-07-06T21:24:36.116Z,90.60
2018-07-06T21:27:07.402Z,90.90
2018-07-06T21:29:37.127Z,91.00
2018-07-06T21:32:06.766Z,91.30
2018-07-06T21:34:36.379Z,91.30
2018-07-06T21:37:06.005Z,91.40
2018-07-06T21:39:36.767Z,91.60
2018-07-06T21:42:06.418Z,91.30
2018-07-06T21:44:36.190Z,91.30
2018-07-06T21:47:05.923Z,91.10
2018-07-06T21:49:35.707Z,91.20
2018-07-06T21:52:05.363Z,91.20
2018-07-06T21:54:35.029Z,91.40
2018-07-06T21:57:04.666Z,91.30
2018-07-06T21:59:34.450Z,91.20
2018-07-06T22:02:09.078Z,91.30
2018-07-06T22:04:39.568Z,91.40
2018-07-06T22:07:09.257Z,91.30
2018-07-06T22:09:39.046Z,91.20
2018-07-06T22:12:08.724Z,91.30
2018-07-06T22:14:38.571Z,91.40
2018-07-06T22:17:08.766Z,91.40
2018-07-06T22:19:38.410Z,91.30
2018-07-06T22:22:09.118Z,91.50
2018-07-06T22:24:38.858Z,91.20
2018-07-06T22:27:08.556Z,91.30
2018-07-06T22:29:38.230Z,91.30
2018-07-06T22:32:07.897Z,91.40
2018-07-06T22:34:37.557Z,91.50
2018-07-06T22:37:07.249Z,91.50
2018-07-06T22:39:36.964Z,91.40
2018-07-06T22:42:06.529Z,91.70
2018-07-06T22:44:36.585Z,91.70
2018-07-06T22:47:07.540Z,91.70
2018-07-06T22:49:37.992Z,91.60
2018-07-06T22:52:07.673Z,91.80
2018-07-06T22:54:37.386Z,91.60
2018-07-06T22:57:07.195Z,91.50
2018-07-06T22:59:36.884Z,91.60
2018-07-06T23:02:07.047Z,91.60
2018-07-06T23:07:06.988Z,91.70
2018-07-06T23:12:06.481Z,91.40
2018-07-06T23:14:37.054Z,91.30
2018-07-06T23:17:06.758Z,91.50
2018-07-06T23:19:36.403Z,91.50
2018-07-06T23:22:06.505Z,91.50
2018-07-06T23:24:36.124Z,91.40
2018-07-06T23:27:06.153Z,91.40
2018-07-06T23:29:35.805Z,91.80
2018-07-06T23:32:06.907Z,91.50
2018-07-06T23:34:37.654Z,91.20
2018-07-06T23:37:07.319Z,90.70
2018-07-06T23:39:36.992Z,90.80
2018-07-06T23:42:06.703Z,90.90
2018-07-06T23:44:37.051Z,91.00
2018-07-06T23:49:38.667Z,90.80
2018-07-06T23:54:37.749Z,90.60
2018-07-06T23:57:07.376Z,90.70
